sensor_id;sensor_type;location;lat;lon;timestamp;temperature;humidity
506;DHT22;551;48.524;9.056;2022-09-14T08:05:34;33.70;1.00
506;DHT22;551;48.524;9.056;2022-09-14T08:17:48;35.00;1.00
506;DHT22;551;48.524;9.056;2022-09-14T08:20:14;35.20;1.00
506;DHT22;551;48.524;9.056;2022-09-14T08:22:44;34.60;1.00
506;DHT22;551;48.524;9.056;2022-09-14T08:25:10;34.50;1.00
506;DHT22;551;48.524;9.056;2022-09-14T08:27:36;34.70;1.00
506;DHT22;551;48.524;9.056;2022-09-14T08:30:02;34.40;1.00
506;DHT22;551;48.524;9.056;2022-09-14T08:32:28;34.30;1.00
506;DHT22;551;48.524;9.056;2022-09-14T08:34:53;35.20;1.00
506;DHT22;551;48.524;9.056;2022-09-14T08:37:18;34.80;1.00
506;DHT22;551;48.524;9.056;2022-09-14T08:39:44;34.40;1.00
506;DHT22;551;48.524;9.056;2022-09-14T09:17:21;33.10;1.00
506;DHT22;551;48.524;9.056;2022-09-14T09:29:55;30.20;1.00
506;DHT22;551;48.524;9.056;2022-09-14T11:51:40;28.50;1.00
506;DHT22;551;48.524;9.056;2022-09-14T11:54:14;29.40;1.00
506;DHT22;551;48.524;9.056;2022-09-14T11:56:42;29.30;1.00
506;DHT22;551;48.524;9.056;2022-09-14T12:12:42;27.40;1.00
506;DHT22;551;48.524;9.056;2022-09-14T12:26:12;25.80;1.00
506;DHT22;551;48.524;9.056;2022-09-14T12:28:42;25.40;1.00
506;DHT22;551;48.524;9.056;2022-09-14T12:31:33;25.10;1.00
506;DHT22;551;48.524;9.056;2022-09-14T12:34:14;24.80;1.00
506;DHT22;551;48.524;9.056;2022-09-14T12:39:22;24.30;1.00
506;DHT22;551;48.524;9.056;2022-09-14T12:49:56;23.90;1.00
506;DHT22;551;48.524;9.056;2022-09-14T12:52:49;23.80;1.00
506;DHT22;551;48.524;9.056;2022-09-14T12:55:43;23.80;1.00
506;DHT22;551;48.524;9.056;2022-09-14T13:03:53;23.50;1.00
506;DHT22;551;48.524;9.056;2022-09-14T13:06:21;23.30;1.00
506;DHT22;551;48.524;9.056;2022-09-14T13:08:50;23.10;1.00
506;DHT22;551;48.524;9.056;2022-09-14T13:11:19;23.00;1.00
506;DHT22;551;48.524;9.056;2022-09-14T13:13:47;22.80;1.00
506;DHT22;551;48.524;9.056;2022-09-14T13:16:17;22.60;1.00
506;DHT22;551;48.524;9.056;2022-09-14T13:18:43;22.50;1.00
506;DHT22;551;48.524;9.056;2022-09-14T13:21:21;22.60;1.00
506;DHT22;551;48.524;9.056;2022-09-14T13:23:47;22.70;1.00
506;DHT22;551;48.524;9.056;2022-09-14T13:26:22;22.90;1.00
506;DHT22;551;48.524;9.056;2022-09-14T13:28:50;23.00;1.00
506;DHT22;551;48.524;9.056;2022-09-14T13:31:19;23.10;1.00
506;DHT22;551;48.524;9.056;2022-09-14T13:33:49;23.10;1.00
506;DHT22;551;48.524;9.056;2022-09-14T13:36:17;23.20;1.00
506;DHT22;551;48.524;9.056;2022-09-14T13:38:44;23.50;1.00
506;DHT22;551;48.524;9.056;2022-09-14T13:41:14;23.50;1.00
506;DHT22;551;48.524;9.056;2022-09-14T13:43:41;23.60;1.00
506;DHT22;551;48.524;9.056;2022-09-14T13:46:07;23.50;1.00
506;DHT22;551;48.524;9.056;2022-09-14T13:48:37;23.50;1.00
506;DHT22;551;48.524;9.056;2022-09-14T13:51:05;23.30;1.00
506;DHT22;551;48.524;9.056;2022-09-14T13:56:35;23.20;1.00
506;DHT22;551;48.524;9.056;2022-09-14T14:01:41;23.50;1.00
506;DHT22;551;48.524;9.056;2022-09-14T14:04:32;23.60;1.00
506;DHT22;551;48.524;9.056;2022-09-14T14:07:21;23.70;1.00
506;DHT22;551;48.524;9.056;2022-09-14T14:09:53;23.70;1.00
506;DHT22;551;48.524;9.056;2022-09-14T14:15:03;23.70;1.00
506;DHT22;551;48.524;9.056;2022-09-14T14:17:31;23.80;1.00
506;DHT22;551;48.524;9.056;2022-09-14T14:19:59;23.90;1.00
506;DHT22;551;48.524;9.056;2022-09-14T14:23:27;24.00;1.00
506;DHT22;551;48.524;9.056;2022-09-14T14:25:49;24.20;1.00
506;DHT22;551;48.524;9.056;2022-09-14T14:28:24;24.20;1.00
506;DHT22;551;48.524;9.056;2022-09-14T14:30:50;24.10;1.00
506;DHT22;551;48.524;9.056;2022-09-14T14:33:17;23.90;1.00
506;DHT22;551;48.524;9.056;2022-09-14T14:35:44;23.70;1.00
506;DHT22;551;48.524;9.056;2022-09-14T14:38:10;23.50;1.00
506;DHT22;551;48.524;9.056;2022-09-14T14:40:37;23.30;1.00
506;DHT22;551;48.524;9.056;2022-09-14T14:43:03;23.20;1.00
506;DHT22;551;48.524;9.056;2022-09-14T14:45:30;23.00;1.00
506;DHT22;551;48.524;9.056;2022-09-14T14:47:58;22.90;1.00
506;DHT22;551;48.524;9.056;2022-09-14T14:50:27;22.90;1.00
506;DHT22;551;48.524;9.056;2022-09-14T14:52:53;22.80;1.00
506;DHT22;551;48.524;9.056;2022-09-14T14:55:19;22.70;1.00
506;DHT22;551;48.524;9.056;2022-09-14T14:57:46;22.60;1.00
506;DHT22;551;48.524;9.056;2022-09-14T15:00:16;22.60;1.00
506;DHT22;551;48.524;9.056;2022-09-14T15:02:43;22.60;1.00
506;DHT22;551;48.524;9.056;2022-09-14T15:05:09;22.50;1.00
506;DHT22;551;48.524;9.056;2022-09-14T15:07:35;22.40;1.00
506;DHT22;551;48.524;9.056;2022-09-14T15:10:00;22.40;1.00
506;DHT22;551;48.524;9.056;2022-09-14T15:12:26;22.30;1.00
506;DHT22;551;48.524;9.056;2022-09-14T15:14:51;22.20;1.00
506;DHT22;551;48.524;9.056;2022-09-14T15:17:17;22.20;1.00
506;DHT22;551;48.524;9.056;2022-09-14T15:19:43;22.20;1.00
506;DHT22;551;48.524;9.056;2022-09-14T15:22:09;22.20;1.00
506;DHT22;551;48.524;9.056;2022-09-14T15:24:35;22.20;1.00
506;DHT22;551;48.524;9.056;2022-09-14T15:27:00;22.30;1.00
506;DHT22;551;48.524;9.056;2022-09-14T15:29:26;22.30;1.00
506;DHT22;551;48.524;9.056;2022-09-14T15:31:52;22.20;1.00
506;DHT22;551;48.524;9.056;2022-09-14T15:34:17;22.20;1.00
506;DHT22;551;48.524;9.056;2022-09-14T15:36:45;22.20;1.00
506;DHT22;551;48.524;9.056;2022-09-14T15:39:23;22.20;1.00
506;DHT22;551;48.524;9.056;2022-09-14T15:41:49;22.20;1.00
506;DHT22;551;48.524;9.056;2022-09-14T15:44:15;22.20;1.00
506;DHT22;551;48.524;9.056;2022-09-14T15:46:41;22.20;1.00
506;DHT22;551;48.524;9.056;2022-09-14T15:49:12;22.30;1.00
506;DHT22;551;48.524;9.056;2022-09-14T15:51:41;22.30;1.00
506;DHT22;551;48.524;9.056;2022-09-14T15:54:07;22.40;1.00
506;DHT22;551;48.524;9.056;2022-09-14T15:56:32;22.30;1.00
506;DHT22;551;48.524;9.056;2022-09-14T15:58:59;22.30;1.00
506;DHT22;551;48.524;9.056;2022-09-14T16:01:25;22.40;1.00
506;DHT22;551;48.524;9.056;2022-09-14T16:03:59;22.40;1.00
506;DHT22;551;48.524;9.056;2022-09-14T16:06:25;22.50;1.00
506;DHT22;551;48.524;9.056;2022-09-14T16:08:51;22.60;1.00
506;DHT22;551;48.524;9.056;2022-09-14T16:11:16;22.60;1.00
506;DHT22;551;48.524;9.056;2022-09-14T16:13:42;22.70;1.00
506;DHT22;551;48.524;9.056;2022-09-14T16:16:12;22.70;1.00
506;DHT22;551;48.524;9.056;2022-09-14T16:18:38;22.70;1.00
506;DHT22;551;48.524;9.056;2022-09-14T16:21:11;22.60;1.00
506;DHT22;551;48.524;9.056;2022-09-14T16:23:40;22.70;1.00
506;DHT22;551;48.524;9.056;2022-09-14T16:26:11;22.60;1.00
506;DHT22;551;48.524;9.056;2022-09-14T16:28:38;22.50;1.00
506;DHT22;551;48.524;9.056;2022-09-14T16:31:06;22.40;1.00
506;DHT22;551;48.524;9.056;2022-09-14T16:33:38;22.30;1.00
506;DHT22;551;48.524;9.056;2022-09-14T16:36:06;22.20;1.00
506;DHT22;551;48.524;9.056;2022-09-14T16:38:32;22.20;1.00
506;DHT22;551;48.524;9.056;2022-09-14T16:40:59;22.10;1.00
506;DHT22;551;48.524;9.056;2022-09-14T16:43:25;22.10;1.00
506;DHT22;551;48.524;9.056;2022-09-14T16:46:14;22.10;1.00
506;DHT22;551;48.524;9.056;2022-09-14T16:48:45;22.10;1.00
506;DHT22;551;48.524;9.056;2022-09-14T16:51:12;22.10;1.00
506;DHT22;551;48.524;9.056;2022-09-14T16:53:39;22.00;1.00
506;DHT22;551;48.524;9.056;2022-09-14T16:56:11;22.10;1.00
506;DHT22;551;48.524;9.056;2022-09-14T16:58:37;22.10;1.00
506;DHT22;551;48.524;9.056;2022-09-14T17:01:08;22.00;1.00
506;DHT22;551;48.524;9.056;2022-09-14T17:03:36;21.90;1.00
506;DHT22;551;48.524;9.056;2022-09-14T17:06:04;21.90;1.00
506;DHT22;551;48.524;9.056;2022-09-14T17:08:30;21.90;1.00
506;DHT22;551;48.524;9.056;2022-09-14T17:10:57;21.90;1.00
506;DHT22;551;48.524;9.056;2022-09-14T17:13:23;21.80;1.00
506;DHT22;551;48.524;9.056;2022-09-14T17:15:49;21.70;1.00
506;DHT22;551;48.524;9.056;2022-09-14T17:18:14;21.60;1.00
506;DHT22;551;48.524;9.056;2022-09-14T17:20:40;21.50;1.00
506;DHT22;551;48.524;9.056;2022-09-14T17:23:15;21.50;1.00
506;DHT22;551;48.524;9.056;2022-09-14T17:25:41;21.40;1.00
506;DHT22;551;48.524;9.056;2022-09-14T17:28:06;21.40;1.00
506;DHT22;551;48.524;9.056;2022-09-14T17:30:32;21.30;1.00
506;DHT22;551;48.524;9.056;2022-09-14T17:32:57;21.20;1.00
506;DHT22;551;48.524;9.056;2022-09-14T17:35:23;21.10;1.00
506;DHT22;551;48.524;9.056;2022-09-14T17:37:48;21.00;1.00
506;DHT22;551;48.524;9.056;2022-09-14T17:40:14;20.90;1.00
506;DHT22;551;48.524;9.056;2022-09-14T17:42:39;20.80;1.00
506;DHT22;551;48.524;9.056;2022-09-14T17:45:07;20.70;1.00
506;DHT22;551;48.524;9.056;2022-09-14T17:47:34;20.60;1.00
506;DHT22;551;48.524;9.056;2022-09-14T17:50:00;20.50;1.00
506;DHT22;551;48.524;9.056;2022-09-14T17:52:25;20.40;1.00
506;DHT22;551;48.524;9.056;2022-09-14T17:54:51;20.40;1.00
506;DHT22;551;48.524;9.056;2022-09-14T17:57:17;20.30;1.00
506;DHT22;551;48.524;9.056;2022-09-14T17:59:43;20.30;1.00
506;DHT22;551;48.524;9.056;2022-09-14T18:02:08;20.20;1.00
506;DHT22;551;48.524;9.056;2022-09-14T18:04:34;20.10;1.00
506;DHT22;551;48.524;9.056;2022-09-14T18:07:02;20.10;1.00
506;DHT22;551;48.524;9.056;2022-09-14T18:09:28;20.00;1.00
506;DHT22;551;48.524;9.056;2022-09-14T18:11:54;20.00;1.00
506;DHT22;551;48.524;9.056;2022-09-14T18:14:20;19.90;1.00
506;DHT22;551;48.524;9.056;2022-09-14T18:16:46;19.90;1.00
506;DHT22;551;48.524;9.056;2022-09-14T18:19:12;19.80;1.00
506;DHT22;551;48.524;9.056;2022-09-14T18:21:38;19.70;1.00
506;DHT22;551;48.524;9.056;2022-09-14T18:24:04;19.70;1.00
506;DHT22;551;48.524;9.056;2022-09-14T18:26:30;19.60;1.00
506;DHT22;551;48.524;9.056;2022-09-14T18:28:55;19.60;1.00
506;DHT22;551;48.524;9.056;2022-09-14T18:31:23;19.50;1.00
506;DHT22;551;48.524;9.056;2022-09-14T18:33:52;19.50;1.00
506;DHT22;551;48.524;9.056;2022-09-14T18:36:18;19.50;1.00
506;DHT22;551;48.524;9.056;2022-09-14T18:38:44;19.50;1.00
506;DHT22;551;48.524;9.056;2022-09-14T18:41:10;19.50;1.00
506;DHT22;551;48.524;9.056;2022-09-14T18:43:37;19.50;1.00
506;DHT22;551;48.524;9.056;2022-09-14T18:46:06;19.50;1.00
506;DHT22;551;48.524;9.056;2022-09-14T18:48:33;19.50;1.00
506;DHT22;551;48.524;9.056;2022-09-14T18:50:59;19.50;1.00
506;DHT22;551;48.524;9.056;2022-09-14T18:53:25;19.50;1.00
506;DHT22;551;48.524;9.056;2022-09-14T18:55:51;19.60;1.00
506;DHT22;551;48.524;9.056;2022-09-14T18:58:16;19.60;1.00
506;DHT22;551;48.524;9.056;2022-09-14T19:00:42;19.60;1.00
506;DHT22;551;48.524;9.056;2022-09-14T19:03:10;19.70;1.00
506;DHT22;551;48.524;9.056;2022-09-14T19:05:38;19.70;1.00
506;DHT22;551;48.524;9.056;2022-09-14T19:08:05;19.70;1.00
506;DHT22;551;48.524;9.056;2022-09-14T19:10:37;19.80;1.00
506;DHT22;551;48.524;9.056;2022-09-14T19:13:03;19.80;1.00
506;DHT22;551;48.524;9.056;2022-09-14T19:15:29;19.80;1.00
506;DHT22;551;48.524;9.056;2022-09-14T19:17:54;19.70;1.00
506;DHT22;551;48.524;9.056;2022-09-14T19:20:20;19.70;1.00
506;DHT22;551;48.524;9.056;2022-09-14T19:22:47;19.70;1.00
506;DHT22;551;48.524;9.056;2022-09-14T19:25:16;19.70;1.00
506;DHT22;551;48.524;9.056;2022-09-14T19:27:42;19.70;1.00
506;DHT22;551;48.524;9.056;2022-09-14T19:30:08;19.70;1.00
506;DHT22;551;48.524;9.056;2022-09-14T19:32:34;19.70;1.00
506;DHT22;551;48.524;9.056;2022-09-14T19:34:59;19.60;1.00
506;DHT22;551;48.524;9.056;2022-09-14T19:37:27;19.50;1.00
506;DHT22;551;48.524;9.056;2022-09-14T19:39:53;19.50;1.00
506;DHT22;551;48.524;9.056;2022-09-14T19:42:19;19.50;1.00
506;DHT22;551;48.524;9.056;2022-09-14T19:44:44;19.40;1.00
506;DHT22;551;48.524;9.056;2022-09-14T19:47:10;19.40;1.00
506;DHT22;551;48.524;9.056;2022-09-14T19:49:35;19.30;1.00
506;DHT22;551;48.524;9.056;2022-09-14T19:52:01;19.30;1.00
506;DHT22;551;48.524;9.056;2022-09-14T19:54:26;19.30;1.00
506;DHT22;551;48.524;9.056;2022-09-14T19:56:52;19.20;1.00
506;DHT22;551;48.524;9.056;2022-09-14T19:59:17;19.20;1.00
506;DHT22;551;48.524;9.056;2022-09-14T20:01:43;19.10;1.00
506;DHT22;551;48.524;9.056;2022-09-14T20:04:09;19.10;1.00
506;DHT22;551;48.524;9.056;2022-09-14T20:06:43;19.10;1.00
506;DHT22;551;48.524;9.056;2022-09-14T20:09:14;19.00;1.00
506;DHT22;551;48.524;9.056;2022-09-14T20:11:41;19.00;1.00
506;DHT22;551;48.524;9.056;2022-09-14T20:14:15;19.00;1.00
506;DHT22;551;48.524;9.056;2022-09-14T20:16:47;19.00;1.00
506;DHT22;551;48.524;9.056;2022-09-14T20:19:18;19.00;1.00
506;DHT22;551;48.524;9.056;2022-09-14T20:21:45;18.90;1.00
506;DHT22;551;48.524;9.056;2022-09-14T20:24:22;18.90;1.00
506;DHT22;551;48.524;9.056;2022-09-14T20:26:52;18.90;1.00
506;DHT22;551;48.524;9.056;2022-09-14T20:29:19;18.90;1.00
506;DHT22;551;48.524;9.056;2022-09-14T20:31:46;18.90;1.00
506;DHT22;551;48.524;9.056;2022-09-14T20:34:14;18.80;1.00
506;DHT22;551;48.524;9.056;2022-09-14T20:36:40;18.80;1.00
506;DHT22;551;48.524;9.056;2022-09-14T20:39:06;18.80;1.00
506;DHT22;551;48.524;9.056;2022-09-14T20:41:34;18.70;1.00
506;DHT22;551;48.524;9.056;2022-09-14T20:44:00;18.70;1.00
506;DHT22;551;48.524;9.056;2022-09-14T20:46:35;18.70;1.00
506;DHT22;551;48.524;9.056;2022-09-14T20:49:02;18.70;1.00
506;DHT22;551;48.524;9.056;2022-09-14T20:51:28;18.70;1.00
506;DHT22;551;48.524;9.056;2022-09-14T20:53:54;18.70;1.00
506;DHT22;551;48.524;9.056;2022-09-14T20:56:25;18.60;1.00
506;DHT22;551;48.524;9.056;2022-09-14T20:58:55;18.60;1.00
506;DHT22;551;48.524;9.056;2022-09-14T21:01:27;18.60;1.00
506;DHT22;551;48.524;9.056;2022-09-14T21:03:54;18.60;1.00
506;DHT22;551;48.524;9.056;2022-09-14T21:06:22;18.60;1.00
506;DHT22;551;48.524;9.056;2022-09-14T21:08:48;18.50;1.00
506;DHT22;551;48.524;9.056;2022-09-14T21:11:18;18.50;1.00
506;DHT22;551;48.524;9.056;2022-09-14T21:13:45;18.50;1.00
506;DHT22;551;48.524;9.056;2022-09-14T21:16:16;18.60;1.00
506;DHT22;551;48.524;9.056;2022-09-14T21:18:42;18.60;1.00
506;DHT22;551;48.524;9.056;2022-09-14T21:21:15;18.60;1.00
506;DHT22;551;48.524;9.056;2022-09-14T21:23:41;18.60;1.00
506;DHT22;551;48.524;9.056;2022-09-14T21:26:08;18.60;1.00
506;DHT22;551;48.524;9.056;2022-09-14T21:28:35;18.50;1.00
506;DHT22;551;48.524;9.056;2022-09-14T21:31:09;18.50;1.00
506;DHT22;551;48.524;9.056;2022-09-14T21:33:37;18.60;1.00
506;DHT22;551;48.524;9.056;2022-09-14T21:36:08;18.50;1.00
506;DHT22;551;48.524;9.056;2022-09-14T21:38:35;18.50;1.00
506;DHT22;551;48.524;9.056;2022-09-14T21:41:01;18.40;1.00
506;DHT22;551;48.524;9.056;2022-09-14T21:43:29;18.40;1.00
506;DHT22;551;48.524;9.056;2022-09-14T21:45:57;18.40;1.00
506;DHT22;551;48.524;9.056;2022-09-14T21:48:23;18.50;1.00
506;DHT22;551;48.524;9.056;2022-09-14T21:50:48;18.50;1.00
506;DHT22;551;48.524;9.056;2022-09-14T21:53:14;18.50;1.00
506;DHT22;551;48.524;9.056;2022-09-14T21:55:40;18.50;1.00
506;DHT22;551;48.524;9.056;2022-09-14T21:58:06;18.50;1.00
506;DHT22;551;48.524;9.056;2022-09-14T22:00:32;18.40;1.00
506;DHT22;551;48.524;9.056;2022-09-14T22:02:57;18.40;1.00
506;DHT22;551;48.524;9.056;2022-09-14T22:05:23;18.40;1.00
506;DHT22;551;48.524;9.056;2022-09-14T22:07:48;18.30;1.00
506;DHT22;551;48.524;9.056;2022-09-14T22:10:14;18.30;1.00
506;DHT22;551;48.524;9.056;2022-09-14T22:12:39;18.20;1.00
506;DHT22;551;48.524;9.056;2022-09-14T22:15:06;18.20;1.00
506;DHT22;551;48.524;9.056;2022-09-14T22:17:33;18.20;1.00
506;DHT22;551;48.524;9.056;2022-09-14T22:19:58;18.20;1.00
506;DHT22;551;48.524;9.056;2022-09-14T22:22:25;18.10;1.00
506;DHT22;551;48.524;9.056;2022-09-14T22:24:51;18.10;1.00
506;DHT22;551;48.524;9.056;2022-09-14T22:27:17;18.10;1.00
506;DHT22;551;48.524;9.056;2022-09-14T22:29:42;18.10;1.00
506;DHT22;551;48.524;9.056;2022-09-14T22:32:08;18.10;1.00
506;DHT22;551;48.524;9.056;2022-09-14T22:34:39;18.00;1.00
506;DHT22;551;48.524;9.056;2022-09-14T22:37:06;18.00;1.00
506;DHT22;551;48.524;9.056;2022-09-14T22:39:31;18.00;1.00
506;DHT22;551;48.524;9.056;2022-09-14T22:41:57;18.00;1.00
506;DHT22;551;48.524;9.056;2022-09-14T22:44:23;18.00;1.00
506;DHT22;551;48.524;9.056;2022-09-14T22:46:49;18.00;1.00
506;DHT22;551;48.524;9.056;2022-09-14T22:49:14;18.00;1.00
506;DHT22;551;48.524;9.056;2022-09-14T22:51:40;17.90;1.00
506;DHT22;551;48.524;9.056;2022-09-14T22:54:06;18.00;1.00
506;DHT22;551;48.524;9.056;2022-09-14T22:56:34;18.00;1.00
506;DHT22;551;48.524;9.056;2022-09-14T22:59:02;18.00;1.00
506;DHT22;551;48.524;9.056;2022-09-14T23:01:31;18.00;1.00
506;DHT22;551;48.524;9.056;2022-09-14T23:04:09;18.10;1.00
506;DHT22;551;48.524;9.056;2022-09-14T23:06:37;18.10;1.00
506;DHT22;551;48.524;9.056;2022-09-14T23:09:04;18.10;1.00
506;DHT22;551;48.524;9.056;2022-09-14T23:11:30;18.20;1.00
506;DHT22;551;48.524;9.056;2022-09-14T23:13:56;18.30;1.00
506;DHT22;551;48.524;9.056;2022-09-14T23:16:24;18.30;1.00
506;DHT22;551;48.524;9.056;2022-09-14T23:19:02;18.40;1.00
506;DHT22;551;48.524;9.056;2022-09-14T23:21:29;18.50;1.00
506;DHT22;551;48.524;9.056;2022-09-14T23:23:59;18.50;1.00
506;DHT22;551;48.524;9.056;2022-09-14T23:26:26;18.60;1.00
506;DHT22;551;48.524;9.056;2022-09-14T23:28:54;18.60;1.00
506;DHT22;551;48.524;9.056;2022-09-14T23:31:21;18.60;1.00
506;DHT22;551;48.524;9.056;2022-09-14T23:33:51;18.70;1.00
506;DHT22;551;48.524;9.056;2022-09-14T23:36:17;18.70;1.00
506;DHT22;551;48.524;9.056;2022-09-14T23:38:43;18.70;1.00
506;DHT22;551;48.524;9.056;2022-09-14T23:41:09;18.70;1.00
506;DHT22;551;48.524;9.056;2022-09-14T23:43:35;18.70;1.00
506;DHT22;551;48.524;9.056;2022-09-14T23:46:00;18.80;1.00
506;DHT22;551;48.524;9.056;2022-09-14T23:48:26;18.80;1.00
506;DHT22;551;48.524;9.056;2022-09-14T23:50:56;18.80;1.00
506;DHT22;551;48.524;9.056;2022-09-14T23:53:22;18.70;1.00
506;DHT22;551;48.524;9.056;2022-09-14T23:55:48;18.70;1.00
506;DHT22;551;48.524;9.056;2022-09-14T23:58:13;18.80;1.00
